Flemington, Florida
Current Conditions -  °F | °C
As of 7:55 PM on Saturday 20 Dec 2014 (Local Time) from KOCF Reporting Station
Overcast Overcast  
Wind Chill: 64°   Ceiling: 8000
Heat Index: 64°   Visibility: 10mi
Dew Point: 57°   Wind: 6mph
Humidity: 77%   Direction: 70°ENE
Pressure: 30.09"   Gusts: NA
Location:  29.3919°N, 82.2811°W
Report Text: KOCF 210055Z AUTO 07005KT 10SM OVC080 18/14 A3009 RMK AO1
Loading
Personal Weather Stations






























Interactive Weather Map New forecast layout! Learn more

10-Day Weather Forecast

Advertisements
Track Severe Weather on mobile